createdAt,value
2022-08-20T00:01:08.839Z,100.00
2022-08-20T00:06:32.167Z,100.00
2022-08-20T00:11:55.490Z,100.00
2022-08-20T00:17:20.085Z,100.00
2022-08-20T00:22:43.221Z,100.00
2022-08-20T00:28:07.117Z,100.00
2022-08-20T00:33:31.607Z,100.00
2022-08-20T00:38:54.670Z,100.00
2022-08-20T00:44:21.889Z,100.00
2022-08-20T00:49:46.596Z,100.00
2022-08-20T00:55:10.619Z,100.00
2022-08-20T01:00:37.745Z,100.00
2022-08-20T01:06:02.191Z,100.00
2022-08-20T01:11:37.147Z,100.00
2022-08-20T01:17:03.226Z,100.00
2022-08-20T01:22:49.541Z,100.00
2022-08-20T01:28:15.967Z,100.00
2022-08-20T01:33:39.357Z,100.00
2022-08-20T01:39:02.996Z,100.00
2022-08-20T01:44:27.632Z,100.00
2022-08-20T01:49:53.383Z,100.00
2022-08-20T01:55:17.043Z,100.00
2022-08-20T02:00:41.589Z,100.00
2022-08-20T02:06:05.364Z,100.00
2022-08-20T02:11:29.865Z,100.00
2022-08-20T02:16:55.682Z,100.00
2022-08-20T02:22:21.915Z,100.00
2022-08-20T02:27:46.939Z,100.00
2022-08-20T02:33:13.498Z,100.00
2022-08-20T02:38:38.944Z,100.00
2022-08-20T02:44:02.165Z,100.00
2022-08-20T02:49:26.570Z,100.00
2022-08-20T02:54:50.256Z,100.00
2022-08-20T03:00:15.857Z,100.00
2022-08-20T03:05:42.821Z,100.00
2022-08-20T03:11:06.035Z,100.00
2022-08-20T03:16:29.073Z,100.00
2022-08-20T03:21:53.754Z,100.00
2022-08-20T03:27:16.822Z,100.00
2022-08-20T03:32:44.582Z,100.00
2022-08-20T03:38:11.976Z,100.00
2022-08-20T03:43:37.427Z,100.00
2022-08-20T03:49:01.110Z,100.00
2022-08-20T03:54:31.755Z,100.00
2022-08-20T03:59:58.574Z,100.00
2022-08-20T04:05:21.958Z,100.00
2022-08-20T04:10:50.606Z,100.00
2022-08-20T04:16:14.904Z,100.00
2022-08-20T04:21:39.644Z,100.00
2022-08-20T04:27:05.248Z,100.00
2022-08-20T04:32:28.373Z,100.00
2022-08-20T04:37:52.219Z,100.00
2022-08-20T04:43:16.700Z,100.00
2022-08-20T04:48:40.696Z,100.00
2022-08-20T04:54:04.531Z,100.00
2022-08-20T04:59:29.070Z,100.00
2022-08-20T05:04:52.560Z,100.00
2022-08-20T05:10:18.741Z,100.00
2022-08-20T05:15:45.680Z,100.00
2022-08-20T05:21:08.807Z,100.00
2022-08-20T05:26:33.257Z,100.00
2022-08-20T05:31:57.724Z,100.00
2022-08-20T05:37:20.729Z,100.00
2022-08-20T05:42:44.196Z,100.00
2022-08-20T05:48:10.701Z,100.00
2022-08-20T05:53:34.195Z,100.00
2022-08-20T05:58:57.516Z,100.00
2022-08-20T06:04:28.638Z,100.00
2022-08-20T06:09:51.829Z,100.00
2022-08-20T06:15:15.507Z,100.00
2022-08-20T06:20:40.505Z,100.00
2022-08-20T06:26:03.743Z,100.00
2022-08-20T06:31:27.421Z,100.00
2022-08-20T06:36:52.562Z,100.00
2022-08-20T06:42:20.627Z,100.00
2022-08-20T06:47:45.817Z,100.00
2022-08-20T06:53:11.775Z,100.00
2022-08-20T06:58:37.833Z,100.00
2022-08-20T07:04:01.972Z,100.00
2022-08-20T07:09:27.354Z,100.00
2022-08-20T07:14:50.723Z,100.00
2022-08-20T07:20:16.238Z,100.00
2022-08-20T07:25:41.495Z,100.00
2022-08-20T07:31:22.558Z,100.00
2022-08-20T07:36:48.341Z,100.00
2022-08-20T07:42:12.832Z,100.00
2022-08-20T07:47:36.089Z,100.00
2022-08-20T07:53:00.474Z,100.00
2022-08-20T07:58:27.709Z,100.00
2022-08-20T08:03:57.558Z,100.00
2022-08-20T08:09:20.627Z,100.00
2022-08-20T08:14:46.215Z,100.00
2022-08-20T08:20:12.329Z,100.00
2022-08-20T08:25:35.468Z,91.70
2022-08-20T08:30:59.952Z,90.44
2022-08-20T08:36:26.785Z,87.30
2022-08-20T08:41:51.881Z,88.48
2022-08-20T08:47:19.463Z,88.44
2022-08-20T08:52:42.661Z,85.12
2022-08-20T08:58:17.085Z,90.81
2022-08-20T09:03:44.317Z,91.40
2022-08-20T09:09:08.552Z,95.23
2022-08-20T09:14:32.465Z,92.79
2022-08-20T09:19:56.861Z,95.45
2022-08-20T09:25:21.240Z,90.20
2022-08-20T09:30:44.406Z,84.13
2022-08-20T09:36:30.677Z,85.28
2022-08-20T09:41:53.884Z,83.85
2022-08-20T09:47:17.411Z,81.49
2022-08-20T09:52:44.423Z,83.53
2022-08-20T09:58:10.627Z,79.47
2022-08-20T10:03:33.715Z,79.20
2022-08-20T10:09:06.326Z,87.20
2022-08-20T10:14:29.405Z,82.58
2022-08-20T10:19:52.471Z,84.43
2022-08-20T10:25:17.851Z,89.26
2022-08-20T10:30:40.998Z,81.86
2022-08-20T10:36:07.814Z,90.28
2022-08-20T10:41:33.136Z,87.10
2022-08-20T10:46:58.229Z,89.79
2022-08-20T10:52:22.161Z,90.00
2022-08-20T10:57:46.585Z,91.25
2022-08-20T11:03:09.640Z,83.20
2022-08-20T11:08:34.498Z,81.13
2022-08-20T11:14:00.491Z,86.91
2022-08-20T11:19:23.579Z,87.11
2022-08-20T11:24:47.128Z,94.19
2022-08-20T11:30:15.326Z,94.82
2022-08-20T11:35:48.314Z,90.30
2022-08-20T11:41:12.767Z,92.10
2022-08-20T11:46:37.433Z,92.83
2022-08-20T11:52:00.770Z,90.62
2022-08-20T11:57:25.151Z,91.72
2022-08-20T12:02:51.759Z,83.15
2022-08-20T12:08:27.727Z,75.80
2022-08-20T12:13:52.225Z,77.18
2022-08-20T12:19:16.699Z,81.40
2022-08-20T12:24:40.450Z,73.93
2022-08-20T12:30:06.556Z,73.36
2022-08-20T12:35:32.060Z,73.24
2022-08-20T12:40:56.461Z,75.08
2022-08-20T12:46:19.589Z,81.10
2022-08-20T12:51:44.036Z,76.91
2022-08-20T12:57:08.060Z,75.03
2022-08-20T13:02:31.441Z,83.70
2022-08-20T13:07:56.211Z,79.30
2022-08-20T13:13:20.108Z,85.61
2022-08-20T13:18:45.394Z,85.33
2022-08-20T13:24:10.546Z,84.35
2022-08-20T13:29:33.673Z,81.96
2022-08-20T13:34:56.788Z,86.13
2022-08-20T13:40:21.389Z,78.86
2022-08-20T13:45:44.610Z,84.75
2022-08-20T13:51:07.671Z,89.84
2022-08-20T13:56:32.050Z,87.07
2022-08-20T14:01:55.118Z,100.00
2022-08-20T14:07:20.186Z,100.00
2022-08-20T14:12:44.540Z,100.00
2022-08-20T14:18:07.620Z,100.00
2022-08-20T14:23:30.970Z,100.00
2022-08-20T14:29:01.542Z,100.00
2022-08-20T14:34:24.599Z,100.00
2022-08-20T14:39:48.932Z,100.00
2022-08-20T14:45:14.414Z,100.00
2022-08-20T14:50:39.103Z,100.00
2022-08-20T14:56:02.170Z,96.94
2022-08-20T15:01:26.781Z,99.85
2022-08-20T15:06:49.990Z,96.29
2022-08-20T15:12:13.061Z,97.81
2022-08-20T15:17:37.457Z,99.84
2022-08-20T15:23:02.275Z,100.00
2022-08-20T15:28:25.340Z,100.00
2022-08-20T15:33:49.959Z,100.00
2022-08-20T15:39:13.030Z,100.00
2022-08-20T15:44:36.366Z,100.00
2022-08-20T15:50:04.626Z,100.00
2022-08-20T15:55:38.929Z,100.00
2022-08-20T16:01:23.983Z,100.00
2022-08-20T16:06:52.114Z,100.00
2022-08-20T16:12:19.338Z,100.00
2022-08-20T16:17:47.969Z,100.00
2022-08-20T16:23:13.879Z,100.00
2022-08-20T16:28:43.784Z,100.00
2022-08-20T16:34:32.940Z,100.00
2022-08-20T16:40:00.667Z,100.00
2022-08-20T16:45:27.512Z,100.00
2022-08-20T16:50:57.239Z,100.00
2022-08-20T16:56:34.358Z,100.00
2022-08-20T17:02:06.935Z,100.00
2022-08-20T17:07:46.295Z,100.00
2022-08-20T17:13:28.239Z,100.00
2022-08-20T17:18:53.560Z,100.00
2022-08-20T17:24:22.076Z,100.00
2022-08-20T17:29:54.987Z,100.00
2022-08-20T17:35:23.629Z,100.00
2022-08-20T17:40:47.266Z,100.00
2022-08-20T17:46:16.326Z,100.00
2022-08-20T17:51:43.864Z,100.00
2022-08-20T17:57:12.036Z,100.00
2022-08-20T18:02:39.060Z,100.00
2022-08-20T18:08:31.849Z,100.00
2022-08-20T18:14:13.834Z,100.00
2022-08-20T18:19:53.005Z,100.00
2022-08-20T18:25:28.410Z,100.00
2022-08-20T18:30:53.763Z,100.00
2022-08-20T18:36:27.548Z,100.00
2022-08-20T18:41:58.670Z,100.00
2022-08-20T18:47:23.299Z,100.00
2022-08-20T18:52:49.816Z,100.00
2022-08-20T18:58:14.718Z,100.00
2022-08-20T19:03:39.748Z,100.00
2022-08-20T19:09:10.856Z,100.00
2022-08-20T19:14:45.346Z,100.00
2022-08-20T19:20:12.153Z,100.00
2022-08-20T19:25:38.936Z,100.00
2022-08-20T19:31:10.339Z,100.00
2022-08-20T19:36:33.858Z,100.00
2022-08-20T19:42:01.938Z,100.00
2022-08-20T19:47:31.339Z,100.00
2022-08-20T19:52:58.897Z,100.00
2022-08-20T19:58:26.442Z,100.00
2022-08-20T20:03:57.865Z,100.00
2022-08-20T20:09:24.782Z,100.00
2022-08-20T20:14:50.886Z,100.00
2022-08-20T20:20:21.625Z,100.00
2022-08-20T20:25:50.146Z,100.00
2022-08-20T20:31:46.423Z,100.00
2022-08-20T20:37:11.235Z,100.00
2022-08-20T20:42:35.597Z,100.00
2022-08-20T20:48:00.025Z,100.00
2022-08-20T20:53:51.408Z,100.00
2022-08-20T20:59:13.049Z,100.00
2022-08-20T21:04:42.376Z,100.00
2022-08-20T21:10:06.635Z,100.00
2022-08-20T21:15:29.734Z,100.00
2022-08-20T21:20:54.392Z,100.00
2022-08-20T21:26:17.541Z,100.00
2022-08-20T21:31:43.652Z,100.00
2022-08-20T21:37:08.479Z,100.00
2022-08-20T21:42:32.194Z,100.00
2022-08-20T21:48:00.290Z,100.00
2022-08-20T21:53:24.701Z,100.00
2022-08-20T21:58:48.367Z,100.00
2022-08-20T22:04:11.534Z,100.00
2022-08-20T22:09:36.205Z,100.00
2022-08-20T22:14:59.458Z,100.00
2022-08-20T22:20:22.626Z,100.00
2022-08-20T22:25:47.226Z,100.00
2022-08-20T22:31:10.338Z,100.00
2022-08-20T22:36:34.470Z,100.00
2022-08-20T22:41:58.993Z,100.00
2022-08-20T22:47:25.900Z,100.00
2022-08-20T22:52:48.899Z,100.00
2022-08-20T22:58:13.403Z,100.00
2022-08-20T23:03:39.466Z,100.00
2022-08-20T23:09:03.029Z,100.00
2022-08-20T23:14:28.495Z,100.00
2022-08-20T23:19:52.183Z,100.00
2022-08-20T23:25:16.338Z,100.00
2022-08-20T23:30:40.727Z,100.00
2022-08-20T23:36:05.472Z,100.00
2022-08-20T23:41:28.662Z,100.00
2022-08-20T23:46:53.317Z,100.00
2022-08-20T23:52:17.884Z,100.00
2022-08-20T23:57:41.065Z,100.00
